Time;durP1;ratioP1;P1;durP2;ratioP2;P2;SDS_P1;SDS_P2;PMS_P1;PMS_P2;Temp;Humidity;BMP_temperature;BMP_pressure;BME280_temperature;BME280_humidity;BME280_pressure;Samples;Min_cycle;Max_cycle;Signal;HPM_P1;HPM_P2
2023/05/28 00:01:22;;;;;;;0.50;0.50;;;;;;;18.68;100.00;99102.75;4960493;28;20219;-64
2023/05/28 00:03:49;;;;;;;0.57;0.57;;;;;;;18.59;100.00;99112.91;4957329;28;20267;-63
2023/05/28 00:06:16;;;;;;;0.60;0.60;;;;;;;18.51;100.00;99099.63;4958960;28;20668;-63
2023/05/28 00:08:43;;;;;;;0.40;0.40;;;;;;;18.61;100.00;99117.06;4959094;28;20228;-64
2023/05/28 00:11:11;;;;;;;0.50;0.50;;;;;;;18.65;100.00;99117.69;4959422;28;20212;-63
2023/05/28 00:13:38;;;;;;;0.43;0.43;;;;;;;18.50;100.00;99083.22;4959930;28;20669;-63
2023/05/28 00:16:05;;;;;;;0.43;0.43;;;;;;;18.56;100.00;99089.75;4962286;28;20698;-63
2023/05/28 00:18:32;;;;;;;0.60;0.60;;;;;;;18.70;100.00;99108.69;4955274;28;20690;-63
2023/05/28 00:21:00;;;;;;;0.80;0.80;;;;;;;18.63;100.00;99101.41;4956465;28;20202;-63
2023/05/28 00:23:27;;;;;;;0.80;0.80;;;;;;;18.73;100.00;99111.06;4957082;28;20667;-63
2023/05/28 00:25:54;;;;;;;0.50;0.50;;;;;;;18.74;100.00;99111.91;4968016;28;20705;-63
2023/05/28 00:28:22;;;;;;;0.60;0.60;;;;;;;18.76;100.00;99110.84;4970901;28;20275;-63
2023/05/28 00:30:48;;;;;;;0.43;0.43;;;;;;;18.78;100.00;99119.34;4971411;28;20211;-64
2023/05/28 00:33:15;;;;;;;0.60;0.60;;;;;;;18.77;100.00;99112.50;4969784;28;20203;-63
2023/05/28 00:35:42;;;;;;;0.67;0.67;;;;;;;18.69;100.00;99099.22;4971036;28;20211;-63
2023/05/28 00:38:10;;;;;;;0.60;0.60;;;;;;;18.75;100.00;99109.19;4971130;28;20202;-63
2023/05/28 00:40:37;;;;;;;0.63;0.63;;;;;;;18.79;100.00;99118.44;4970643;28;20209;-64
2023/05/28 00:43:04;;;;;;;0.60;0.60;;;;;;;18.84;100.00;99108.53;4970536;28;20199;-63
2023/05/28 00:45:32;;;;;;;0.40;0.40;;;;;;;18.84;100.00;99099.91;4977515;28;20216;-63
2023/05/28 00:47:59;;;;;;;0.50;0.50;;;;;;;18.85;100.00;99101.59;4971389;28;20240;-64
2023/05/28 00:50:28;;;;;;;0.50;0.50;;;;;;;18.81;100.00;99095.78;4974602;28;20218;-63
2023/05/28 00:52:56;;;;;;;0.50;0.50;;;;;;;18.72;100.00;99091.22;4974064;28;20211;-63
2023/05/28 00:55:23;;;;;;;0.60;0.60;;;;;;;18.67;100.00;99101.09;4974106;28;20227;-63
2023/05/28 00:57:54;;;;;;;0.50;0.50;;;;;;;18.62;100.00;99087.56;4974368;28;20586;-63
2023/05/28 01:00:21;;;;;;;0.80;0.80;;;;;;;18.57;100.00;99087.06;4974353;28;20686;-63
2023/05/28 01:02:49;;;;;;;0.50;0.50;;;;;;;18.50;100.00;99075.44;4973825;28;20641;-64
2023/05/28 01:05:17;;;;;;;0.50;0.50;;;;;;;18.42;100.00;99077.66;4973550;28;20217;-64
2023/05/28 01:07:43;;;;;;;0.60;0.60;;;;;;;18.34;100.00;99074.78;4973269;28;20343;-63
2023/05/28 01:10:11;;;;;;;0.60;0.60;;;;;;;18.23;100.00;99070.28;4974041;28;20204;-63
2023/05/28 01:12:39;;;;;;;0.50;0.50;;;;;;;18.28;100.00;99077.78;4973828;28;20261;-63
2023/05/28 01:15:07;;;;;;;0.60;0.60;;;;;;;18.29;100.00;99071.63;4973624;28;20212;-64
2023/05/28 01:17:34;;;;;;;0.60;0.60;;;;;;;18.22;100.00;99049.66;4973608;28;20210;-63
2023/05/28 01:20:05;;;;;;;0.70;0.70;;;;;;;18.24;100.00;99065.94;4972468;28;20651;-63
2023/05/28 01:22:38;;;;;;;0.43;0.43;;;;;;;18.25;100.00;99062.41;4973707;28;20205;-63
2023/05/28 01:25:09;;;;;;;0.40;0.40;;;;;;;18.17;100.00;99055.13;4972641;28;20266;-63
2023/05/28 01:27:39;;;;;;;0.40;0.40;;;;;;;18.25;100.00;99062.41;4972703;28;20223;-63
2023/05/28 01:30:09;;;;;;;0.50;0.50;;;;;;;18.25;100.00;99060.66;4974016;28;20212;-64
2023/05/28 01:32:37;;;;;;;0.50;0.50;;;;;;;18.26;100.00;99064.91;4973500;28;20212;-63
2023/05/28 01:35:04;;;;;;;0.40;0.40;;;;;;;18.26;100.00;99058.88;4973716;28;20702;-63
2023/05/28 01:37:33;;;;;;;0.67;0.67;;;;;;;18.27;100.00;99060.53;4972313;28;20557;-63
2023/05/28 01:40:03;;;;;;;0.50;0.50;;;;;;;18.31;100.00;99062.00;4973579;28;20209;-64
2023/05/28 01:42:32;;;;;;;0.60;0.60;;;;;;;18.23;100.00;99066.84;4972904;28;20239;-63
2023/05/28 01:45:01;;;;;;;0.70;0.70;;;;;;;18.24;100.00;99064.19;4973392;28;20266;-63
2023/05/28 01:47:30;;;;;;;0.60;0.60;;;;;;;18.17;100.00;99036.13;4971402;28;20649;-63
2023/05/28 01:49:57;;;;;;;0.50;0.50;;;;;;;18.26;100.00;99059.69;4973501;28;20699;-63
2023/05/28 01:52:23;;;;;;;0.50;0.50;;;;;;;18.22;100.00;99053.06;4972936;28;20278;-63
2023/05/28 01:54:50;;;;;;;0.50;0.50;;;;;;;18.18;100.00;99056.81;4973494;28;20278;-63
2023/05/28 01:57:17;;;;;;;0.63;0.63;;;;;;;18.10;100.00;99058.22;4972724;28;20222;-63
2023/05/28 01:59:45;;;;;;;0.50;0.50;;;;;;;18.14;100.00;99057.09;4973439;28;20658;-63
2023/05/28 02:02:12;;;;;;;0.60;0.60;;;;;;;18.08;100.00;99050.56;4973432;28;20208;-63
2023/05/28 02:04:39;;;;;;;0.43;0.43;;;;;;;18.09;100.00;99064.38;4973540;28;20532;-63
2023/05/28 02:07:06;;;;;;;0.50;0.50;;;;;;;18.09;100.00;99066.97;4972531;28;20208;-63
2023/05/28 02:09:34;;;;;;;0.60;0.60;;;;;;;18.10;100.00;99064.25;4973573;28;20603;-63
2023/05/28 02:12:02;;;;;;;0.50;0.50;;;;;;;18.15;100.00;99066.56;4972786;28;20212;-63
2023/05/28 02:14:29;;;;;;;0.50;0.50;;;;;;;18.17;100.00;99059.47;4973039;28;20214;-63
2023/05/28 02:16:58;;;;;;;0.60;0.60;;;;;;;18.15;100.00;99061.38;4972500;28;20299;-63
2023/05/28 02:19:25;;;;;;;0.50;0.50;;;;;;;18.17;100.00;99056.88;4972871;28;20264;-63
2023/05/28 02:21:56;;;;;;;0.47;0.47;;;;;;;18.12;100.00;99059.81;4973176;28;22192;-63
2023/05/28 02:24:23;;;;;;;1.10;1.10;;;;;;;18.09;100.00;99056.59;4972922;28;20599;-64
2023/05/28 02:26:51;;;;;;;0.53;0.53;;;;;;;18.08;100.00;99055.75;4973245;28;20659;-64
2023/05/28 02:29:17;;;;;;;0.50;0.50;;;;;;;18.11;100.00;99054.72;4972892;28;20398;-63
2023/05/28 02:31:44;;;;;;;0.50;0.50;;;;;;;18.13;100.00;99052.84;4972503;28;20214;-63
2023/05/28 02:34:12;;;;;;;0.60;0.60;;;;;;;18.14;100.00;99060.53;4972634;28;20212;-63
2023/05/28 02:36:40;;;;;;;0.60;0.60;;;;;;;18.19;100.00;99057.63;4972231;28;20564;-63
2023/05/28 02:39:10;;;;;;;0.50;0.50;;;;;;;18.20;100.00;99065.31;4964549;28;20231;-63
2023/05/28 02:41:36;;;;;;;0.60;0.60;;;;;;;18.21;100.00;99053.16;4972576;28;20200;-63
2023/05/28 02:44:03;;;;;;;0.73;0.53;;;;;;;18.20;100.00;99059.28;4972703;28;20627;-64
2023/05/28 02:46:30;;;;;;;0.40;0.40;;;;;;;18.13;100.00;99048.47;4971774;28;20212;-63
2023/05/28 02:48:57;;;;;;;0.50;0.50;;;;;;;18.20;100.00;99059.28;4969688;28;20219;-63
2023/05/28 02:51:25;;;;;;;0.70;0.70;;;;;;;18.26;100.00;99054.50;4972008;28;20352;-63
2023/05/28 02:53:53;;;;;;;0.33;0.33;;;;;;;18.33;100.00;99067.91;4974423;28;20203;-64
2023/05/28 02:56:20;;;;;;;0.70;0.70;;;;;;;18.38;100.00;99068.44;4973521;28;20201;-63
2023/05/28 02:58:47;;;;;;;0.43;0.43;;;;;;;18.45;100.00;99069.66;4972253;28;20208;-64
2023/05/28 03:01:14;;;;;;;0.40;0.40;;;;;;;18.53;100.00;99066.59;4972625;28;20204;-64
2023/05/28 03:03:41;;;;;;;0.53;0.53;;;;;;;18.60;100.00;99071.28;4972009;28;20214;-63
2023/05/28 03:06:08;;;;;;;0.60;0.60;;;;;;;18.66;100.00;99078.66;4972382;28;20209;-63
2023/05/28 03:08:37;;;;;;;0.53;0.53;;;;;;;18.66;100.00;99073.47;4971109;28;20220;-64
2023/05/28 03:11:03;;;;;;;0.60;0.60;;;;;;;18.76;100.00;99084.03;4972289;28;20204;-64
2023/05/28 03:13:30;;;;;;;0.67;0.67;;;;;;;18.80;100.00;99088.91;4970554;28;20202;-63
2023/05/28 03:15:58;;;;;;;0.43;0.43;;;;;;;18.84;100.00;99092.97;4972418;28;20217;-64
2023/05/28 03:18:27;;;;;;;0.53;0.53;;;;;;;18.86;100.00;99101.50;4971731;28;20565;-64
2023/05/28 03:20:54;;;;;;;0.50;0.50;;;;;;;18.91;100.00;99101.16;4972090;28;20603;-64
2023/05/28 03:23:20;;;;;;;0.60;0.60;;;;;;;18.94;100.00;99107.91;4972162;28;20575;-63
2023/05/28 03:25:48;;;;;;;0.43;0.43;;;;;;;18.94;100.00;99102.72;4970390;28;20711;-64
2023/05/28 03:28:15;;;;;;;0.60;0.60;;;;;;;18.96;100.00;99101.69;4971603;28;20216;-63
2023/05/28 03:30:43;;;;;;;0.60;0.60;;;;;;;18.97;100.00;99097.31;4971999;28;20203;-63
2023/05/28 03:33:09;;;;;;;0.50;0.50;;;;;;;18.99;100.00;99095.44;4971746;28;20198;-63
2023/05/28 03:35:36;;;;;;;0.50;0.50;;;;;;;18.99;100.00;99096.28;4971760;28;20260;-64
2023/05/28 03:38:03;;;;;;;0.50;0.50;;;;;;;19.01;100.00;99104.78;4968916;28;20209;-63
2023/05/28 03:40:30;;;;;;;0.60;0.60;;;;;;;19.04;100.00;99093.34;4968805;28;20218;-64
2023/05/28 03:42:59;;;;;;;0.50;0.50;;;;;;;19.05;100.00;99106.25;4971865;28;20210;-63
2023/05/28 03:45:25;;;;;;;0.63;0.63;;;;;;;18.96;100.00;99090.47;4971316;28;20222;-63
2023/05/28 03:47:52;;;;;;;0.57;0.57;;;;;;;18.98;100.00;99107.59;4970476;28;20274;-64
2023/05/28 03:50:19;;;;;;;0.60;0.60;;;;;;;18.99;100.00;99116.22;4971340;28;20212;-63
2023/05/28 03:52:46;;;;;;;0.60;0.60;;;;;;;18.99;100.00;99111.03;4971658;28;20625;-63
2023/05/28 03:55:13;;;;;;;0.70;0.70;;;;;;;19.01;100.00;99122.16;4971285;28;20282;-63
2023/05/28 03:57:40;;;;;;;0.50;0.50;;;;;;;19.01;100.00;99124.75;4971216;28;20207;-63
2023/05/28 04:00:10;;;;;;;0.50;0.50;;;;;;;19.04;100.00;99114.97;4971506;28;20333;-63
2023/05/28 04:02:37;;;;;;;0.50;0.50;;;;;;;19.05;100.00;99110.59;4970552;28;20292;-63
2023/05/28 04:05:04;;;;;;;0.60;0.60;;;;;;;19.06;100.00;99117.47;4971425;28;20281;-63
2023/05/28 04:07:31;;;;;;;0.60;0.60;;;;;;;19.06;100.00;99127.88;4971447;28;20583;-63
2023/05/28 04:09:57;;;;;;;0.50;0.50;;;;;;;19.07;100.00;99125.16;4971353;28;20607;-63
2023/05/28 04:12:24;;;;;;;0.50;0.50;;;;;;;19.10;100.00;99129.28;4971447;28;20206;-63
2023/05/28 04:14:51;;;;;;;0.50;0.50;;;;;;;19.12;100.00;99128.28;4971708;28;20211;-64
2023/05/28 04:17:20;;;;;;;1.00;1.00;;;;;;;19.13;100.00;99123.88;4971473;28;20628;-63
2023/05/28 04:19:47;;;;;;;0.40;0.40;;;;;;;19.16;100.00;99126.31;4973070;28;20296;-63
2023/05/28 04:22:14;;;;;;;0.47;0.47;;;;;;;19.11;100.00;99124.00;4974441;28;20260;-63
2023/05/28 04:24:41;;;;;;;0.60;0.60;;;;;;;18.96;100.00;99112.09;4974793;28;20611;-63
2023/05/28 04:27:08;;;;;;;0.40;0.40;;;;;;;19.04;100.00;99129.72;4965044;28;20602;-63
2023/05/28 04:29:35;;;;;;;0.50;0.50;;;;;;;19.02;100.00;99132.44;4974409;28;20226;-63
2023/05/28 04:32:01;;;;;;;0.60;0.60;;;;;;;19.00;100.00;99134.28;4971977;28;20217;-63
2023/05/28 04:34:32;;;;;;;0.40;0.40;;;;;;;19.01;100.00;99129.94;4974422;28;20216;-64
2023/05/28 04:36:59;;;;;;;0.93;0.93;;;;;;;18.91;100.00;99118.50;4974905;28;20273;-62
2023/05/28 04:39:27;;;;;;;0.57;0.57;;;;;;;19.01;100.00;99135.97;4973925;28;20686;-63
2023/05/28 04:41:54;;;;;;;0.40;0.40;;;;;;;19.03;100.00;99141.06;4974657;28;20220;-63
2023/05/28 04:44:25;;;;;;;0.67;0.67;;;;;;;19.07;100.00;99139.91;4974418;28;20261;-63
2023/05/28 04:46:52;;;;;;;0.43;0.43;;;;;;;19.07;100.00;99145.09;4973926;28;20744;-64
2023/05/28 04:49:18;;;;;;;0.30;0.30;;;;;;;19.09;100.00;99144.09;4976184;28;20369;-63
2023/05/28 04:51:47;;;;;;;0.60;0.60;;;;;;;19.10;100.00;99139.69;4974612;28;20198;-63
2023/05/28 04:54:13;;;;;;;0.50;0.50;;;;;;;19.06;100.00;99140.88;4974506;28;20591;-63
2023/05/28 04:56:40;;;;;;;0.70;0.70;;;;;;;19.00;100.00;99139.50;4974480;28;20692;-64
2023/05/28 04:59:09;;;;;;;0.87;0.70;;;;;;;19.02;100.00;99148.03;4974343;28;20201;-63
2023/05/28 05:01:36;;;;;;;0.40;0.40;;;;;;;19.01;100.00;99155.91;4973861;28;20267;-63
2023/05/28 05:04:03;;;;;;;0.40;0.40;;;;;;;18.99;100.00;99155.19;4975817;28;20630;-63
2023/05/28 05:06:30;;;;;;;0.70;0.70;;;;;;;18.97;100.00;99155.28;4974239;28;20728;-64
2023/05/28 05:08:58;;;;;;;0.70;0.70;;;;;;;18.86;100.00;99155.22;4973527;28;20224;-64
2023/05/28 05:11:26;;;;;;;0.60;0.60;;;;;;;18.86;100.00;99153.44;4974391;28;20217;-63
2023/05/28 05:13:52;;;;;;;0.50;0.50;;;;;;;18.86;100.00;99158.63;4972046;28;20230;-63
2023/05/28 05:16:20;;;;;;;0.60;0.60;;;;;;;18.82;100.00;99152.00;4974136;28;20209;-63
2023/05/28 05:18:47;;;;;;;0.70;0.70;;;;;;;18.84;100.00;99152.69;4974080;28;20234;-63
2023/05/28 05:21:14;;;;;;;0.50;0.50;;;;;;;18.83;100.00;99152.81;4973523;28;20207;-64
2023/05/28 05:23:41;;;;;;;0.67;0.67;;;;;;;18.70;100.00;99142.44;4973101;28;20214;-63
2023/05/28 05:26:12;;;;;;;0.60;0.60;;;;;;;18.74;100.00;99159.44;4973687;28;20225;-63
2023/05/28 05:28:39;;;;;;;0.70;0.70;;;;;;;18.68;100.00;99165.06;4974013;28;20261;-63
2023/05/28 05:31:07;;;;;;;0.60;0.60;;;;;;;18.55;100.00;99166.81;4972882;28;20201;-63
2023/05/28 05:33:34;;;;;;;0.60;0.60;;;;;;;18.52;100.00;99168.78;4973575;28;20232;-63
2023/05/28 05:36:01;;;;;;;0.50;0.50;;;;;;;18.26;100.00;99170.44;4973455;28;20306;-63
2023/05/28 05:38:28;;;;;;;0.50;0.50;;;;;;;18.27;100.00;99179.91;4973430;28;20204;-63
2023/05/28 05:40:55;;;;;;;0.60;0.60;;;;;;;18.26;100.00;99184.25;4973982;28;20276;-64
2023/05/28 05:43:23;;;;;;;0.93;0.93;;;;;;;18.22;100.00;99187.97;4974272;28;20664;-63
2023/05/28 05:45:50;;;;;;;0.60;0.60;;;;;;;18.21;100.00;99185.50;4973587;28;20200;-64
2023/05/28 05:48:18;;;;;;;0.50;0.50;;;;;;;18.16;100.00;99187.53;4973597;28;20205;-63
2023/05/28 05:50:51;;;;;;;0.60;0.60;;;;;;;18.25;100.00;99186.97;4973079;28;20215;-63
2023/05/28 05:53:18;;;;;;;0.50;0.50;;;;;;;18.19;100.00;99187.38;4972640;28;20208;-62
2023/05/28 05:55:45;;;;;;;0.50;0.50;;;;;;;18.04;100.00;99173.59;4972583;28;20699;-63
2023/05/28 05:58:12;;;;;;;0.57;0.57;;;;;;;18.03;100.00;99189.28;4972492;28;20201;-63
2023/05/28 06:00:40;;;;;;;0.60;0.60;;;;;;;17.96;100.00;99191.44;4971866;28;20246;-62
2023/05/28 06:03:07;;;;;;;0.50;0.50;;;;;;;17.96;100.00;99190.59;4972100;28;20206;-63
2023/05/28 06:05:34;;;;;;;0.53;0.53;;;;;;;17.87;100.00;99180.81;4973133;28;20215;-63
2023/05/28 06:08:02;;;;;;;0.60;0.60;;;;;;;17.95;100.00;99199.28;4974514;28;20680;-63
2023/05/28 06:10:29;;;;;;;0.67;0.67;;;;;;;17.95;100.00;99194.09;4973243;28;20224;-63
2023/05/28 06:12:56;;;;;;;0.40;0.40;;;;;;;17.94;100.00;99208.00;4972599;28;20207;-63
2023/05/28 06:15:24;;;;;;;0.50;0.50;;;;;;;17.90;100.00;99207.34;4973074;28;20203;-63
2023/05/28 06:17:52;;;;;;;0.50;0.50;;;;;;;17.84;100.00;99200.81;4972719;28;20210;-63
2023/05/28 06:20:20;;;;;;;0.60;0.60;;;;;;;17.91;100.00;99203.00;4972071;28;20666;-63
2023/05/28 06:22:47;;;;;;;0.50;0.50;;;;;;;17.86;100.00;99195.53;4973089;28;20315;-64
2023/05/28 06:25:14;;;;;;;0.63;0.63;;;;;;;17.87;100.00;99191.19;4972496;28;20603;-63
2023/05/28 06:27:41;;;;;;;0.60;0.60;;;;;;;17.76;100.00;99190.09;4972619;28;20221;-63
2023/05/28 06:30:10;;;;;;;0.60;0.60;;;;;;;17.72;100.00;99186.03;4971689;28;20677;-62
2023/05/28 06:32:36;;;;;;;0.60;0.60;;;;;;;17.75;100.00;99190.19;4972579;28;20288;-63
2023/05/28 06:35:05;;;;;;;0.40;0.40;;;;;;;17.79;100.00;99202.03;4972187;28;20270;-64
2023/05/28 06:37:32;;;;;;;0.70;0.70;;;;;;;17.69;100.00;99201.78;4971721;28;20201;-64
2023/05/28 06:39:59;;;;;;;0.60;0.60;;;;;;;17.69;100.00;99199.19;4971938;28;20201;-63
2023/05/28 06:42:25;;;;;;;0.57;0.57;;;;;;;17.69;100.00;99206.13;4974366;28;20667;-64
2023/05/28 06:44:52;;;;;;;0.47;0.47;;;;;;;17.81;100.00;99206.19;4971264;28;20230;-63
2023/05/28 06:47:19;;;;;;;0.60;0.60;;;;;;;17.81;100.00;99210.53;4971460;28;20589;-63
2023/05/28 06:49:46;;;;;;;0.50;0.50;;;;;;;17.84;100.00;99208.59;4971202;28;20702;-63
2023/05/28 06:52:14;;;;;;;0.50;0.50;;;;;;;17.84;100.00;99212.94;4971615;28;20205;-63
2023/05/28 06:54:40;;;;;;;0.60;0.60;;;;;;;17.95;100.00;99209.66;4972496;28;20588;-62
2023/05/28 06:57:07;;;;;;;0.50;0.50;;;;;;;17.94;100.00;99213.19;4972733;28;20587;-63
2023/05/28 06:59:34;;;;;;;0.50;0.50;;;;;;;17.98;100.00;99197.34;4972122;28;20639;-63
2023/05/28 07:02:01;;;;;;;0.80;0.80;;;;;;;18.17;100.00;99210.81;4971363;28;21007;-63
2023/05/28 07:04:28;;;;;;;0.57;0.57;;;;;;;18.23;100.00;99209.56;4971014;28;20774;-63
2023/05/28 07:06:54;;;;;;;0.60;0.60;;;;;;;18.25;100.00;99203.38;4972264;28;20279;-63
2023/05/28 07:09:23;;;;;;;0.47;0.47;;;;;;;18.27;100.00;99211.03;4971218;28;20228;-63
2023/05/28 07:11:49;;;;;;;0.50;0.50;;;;;;;18.26;100.00;99210.22;4973580;28;20625;-63
2023/05/28 07:14:16;;;;;;;0.50;0.50;;;;;;;18.23;100.00;99209.56;4971496;28;20564;-63
2023/05/28 07:16:43;;;;;;;0.50;0.50;;;;;;;18.30;100.00;99206.50;4971416;28;20946;-63
2023/05/28 07:19:10;;;;;;;0.50;0.50;;;;;;;18.36;100.00;99205.25;4971368;28;20926;-63
2023/05/28 07:21:37;;;;;;;0.70;0.70;;;;;;;18.41;100.00;99205.81;4970812;28;20648;-63
2023/05/28 07:24:05;;;;;;;0.40;0.40;;;;;;;18.48;100.00;99207.03;4969342;28;20449;-62
2023/05/28 07:26:33;;;;;;;0.53;0.53;;;;;;;18.59;100.00;99207.22;4971538;28;20626;-62
2023/05/28 07:29:00;;;;;;;0.60;0.60;;;;;;;18.54;100.00;99203.25;4972095;28;20303;-61
2023/05/28 07:31:28;;;;;;;0.50;0.50;;;;;;;18.49;100.00;99206.13;4971001;28;20571;-62
2023/05/28 07:33:55;;;;;;;0.60;0.60;;;;;;;18.54;100.00;99198.91;4971230;28;20205;-61
2023/05/28 07:36:21;;;;;;;0.77;0.77;;;;;;;18.52;100.00;99200.75;4971970;28;20208;-62
2023/05/28 07:38:48;;;;;;;0.50;0.50;;;;;;;18.53;100.00;99202.44;4970659;28;20199;-62
2023/05/28 07:41:15;;;;;;;0.60;0.60;;;;;;;18.56;100.00;99202.22;4972043;28;20195;-61
2023/05/28 07:43:43;;;;;;;0.50;0.50;;;;;;;18.60;100.00;99208.06;4972128;28;20637;-62
2023/05/28 07:46:10;;;;;;;0.60;0.60;;;;;;;18.59;100.00;99206.38;4971797;28;20283;-62
2023/05/28 07:48:37;;;;;;;0.50;0.50;;;;;;;18.52;100.00;99192.97;4971893;28;20213;-62
2023/05/28 07:51:04;;;;;;;0.50;0.50;;;;;;;18.64;100.00;99206.91;4971784;28;20226;-62
2023/05/28 07:53:31;;;;;;;0.40;0.40;;;;;;;18.69;100.00;99205.69;4971145;28;20216;-63
2023/05/28 07:56:00;;;;;;;0.70;0.70;;;;;;;18.68;100.00;99196.22;4971185;28;20265;-62
2023/05/28 07:58:27;;;;;;;0.50;0.50;;;;;;;18.76;100.00;99193.94;4970858;28;20289;-65
2023/05/28 08:00:55;;;;;;;0.60;0.60;;;;;;;18.76;100.00;99196.56;4971045;28;20201;-65
2023/05/28 08:03:23;;;;;;;0.53;0.53;;;;;;;18.87;100.00;99195.81;4971713;28;20298;-65
2023/05/28 08:05:50;;;;;;;0.40;0.40;;;;;;;18.92;100.00;99200.72;4971266;28;20245;-65
2023/05/28 08:08:17;;;;;;;0.50;0.50;;;;;;;18.96;100.00;99202.19;4971853;28;20301;-65
2023/05/28 08:10:44;;;;;;;0.80;0.80;;;;;;;19.02;100.00;99204.34;4971048;28;20216;-65
2023/05/28 08:13:11;;;;;;;0.60;0.60;;;;;;;19.03;100.00;99201.63;4971544;28;20689;-65
2023/05/28 08:15:37;;;;;;;0.40;0.40;;;;;;;18.99;100.00;99204.56;4971551;28;20208;-65
2023/05/28 08:18:06;;;;;;;0.50;0.50;;;;;;;19.05;100.00;99210.19;4971804;28;20214;-65
2023/05/28 08:20:33;;;;;;;0.90;0.90;;;;;;;19.01;100.00;99202.69;4971847;28;20240;-65
2023/05/28 08:22:59;;;;;;;0.50;0.50;;;;;;;19.00;100.00;99199.25;4971033;28;20202;-65
2023/05/28 08:25:26;;;;;;;0.50;0.50;;;;;;;19.05;100.00;99198.94;4968593;28;20243;-65
2023/05/28 08:27:53;;;;;;;0.53;0.53;;;;;;;19.04;100.00;99197.28;4951202;28;20212;-65
2023/05/28 08:30:20;;;;;;;0.50;0.50;;;;;;;19.03;100.00;99190.44;4951817;28;20362;-65
2023/05/28 08:32:47;;;;;;;0.40;0.40;;;;;;;19.05;100.00;99189.38;4966785;28;20618;-65
2023/05/28 08:35:15;;;;;;;0.57;0.57;;;;;;;19.06;100.00;99191.06;4969932;28;20208;-65
2023/05/28 08:37:42;;;;;;;0.50;0.50;;;;;;;19.10;100.00;99189.06;4965180;28;20205;-65
2023/05/28 08:40:10;;;;;;;0.50;0.50;;;;;;;19.20;100.00;99171.91;4951673;28;20214;-65
2023/05/28 08:42:37;;;;;;;0.40;0.40;;;;;;;19.44;100.00;99193.66;4952404;28;20260;-65
2023/05/28 08:45:05;;;;;;;0.50;0.50;;;;;;;19.71;100.00;99178.69;4960455;28;20209;-65
2023/05/28 08:47:33;;;;;;;0.40;0.40;;;;;;;20.04;100.00;99190.22;4967290;28;20223;-65
2023/05/28 08:50:04;;;;;;;0.47;0.47;;;;;;;20.18;100.00;99187.47;4951973;28;20220;-65
2023/05/28 08:52:33;;;;;;;0.40;0.40;;;;;;;20.25;100.00;99196.50;4946715;28;20205;-65
2023/05/28 08:55:01;;;;;;;0.50;0.50;;;;;;;20.50;100.00;99191.19;4950655;28;20200;-65
2023/05/28 08:57:30;;;;;;;0.50;0.50;;;;;;;20.63;100.00;99199.75;4951621;28;20298;-65
2023/05/28 08:59:59;;;;;;;0.40;0.40;;;;;;;20.90;100.00;99189.84;4951740;28;20763;-65
2023/05/28 09:02:26;;;;;;;0.80;0.80;;;;;;;21.17;100.00;99188.72;4951966;28;20264;-65
2023/05/28 09:04:56;;;;;;;0.40;0.40;;;;;;;21.45;100.00;99188.25;4951571;28;20219;-65
2023/05/28 09:07:22;;;;;;;0.40;0.40;;;;;;;21.52;100.00;99197.25;4953916;28;20236;-65
2023/05/28 09:09:51;;;;;;;0.50;0.50;;;;;;;21.51;100.00;99182.56;4955617;28;20691;-65
2023/05/28 09:12:21;;;;;;;0.40;0.40;;;;;;;21.58;100.00;99193.34;4958935;28;20207;-65
2023/05/28 09:14:51;;;;;;;0.50;0.50;;;;;;;21.57;100.00;99191.69;4955600;28;20290;-65
2023/05/28 09:17:17;;;;;;;0.30;0.30;;;;;;;21.47;100.00;99173.31;4953975;28;20208;-65
2023/05/28 09:19:51;;;;;;;0.30;0.30;;;;;;;21.78;100.00;99185.59;4949520;28;20201;-65
2023/05/28 09:22:19;;;;;;;0.60;0.60;;;;;;;22.04;100.00;99180.09;4955612;28;20683;-65
2023/05/28 09:24:52;;;;;;;0.60;0.60;;;;;;;22.25;100.00;99188.81;4974354;28;20703;-65
2023/05/28 09:27:19;;;;;;;0.40;0.40;;;;;;;22.44;100.00;99183.75;4974269;28;20734;-65
2023/05/28 09:29:46;;;;;;;0.30;0.30;;;;;;;22.74;100.00;99186.47;4974071;28;20222;-65
2023/05/28 09:32:19;;;;;;;0.30;0.30;;;;;;;22.82;100.00;99188.44;4974286;28;20208;-65
2023/05/28 09:34:46;;;;;;;0.40;0.40;;;;;;;22.81;100.00;99187.59;4974307;28;20560;-65
2023/05/28 09:37:16;;;;;;;0.40;0.40;;;;;;;22.80;100.00;99180.72;4974360;28;20222;-65
2023/05/28 09:39:43;;;;;;;0.37;0.37;;;;;;;22.75;100.00;99180.28;4974077;28;20254;-65
2023/05/28 09:42:13;;;;;;;1.40;0.40;;;;;;;22.91;100.00;99188.47;4974035;28;20199;-65
2023/05/28 09:44:41;;;;;;;0.30;0.30;;;;;;;22.99;100.00;99185.22;4974137;28;20746;-65
2023/05/28 09:47:15;;;;;;;0.30;0.30;;;;;;;23.24;100.00;99171.72;4966031;28;20615;-65
2023/05/28 09:49:44;;;;;;;0.30;0.30;;;;;;;23.40;100.00;99179.09;4973596;28;20234;-65
2023/05/28 09:52:18;;;;;;;0.27;0.27;;;;;;;23.45;100.00;99176.94;4973546;28;20298;-65
2023/05/28 09:54:49;;;;;;;0.30;0.30;;;;;;;23.49;100.00;99170.44;4972162;28;20295;-65
2023/05/28 09:57:18;;;;;;;0.30;0.30;;;;;;;23.40;100.00;99160.78;4973786;28;20255;-65
2023/05/28 09:59:47;;;;;;;0.40;0.40;;;;;;;23.64;100.00;99165.69;4973073;28;20275;-65
2023/05/28 10:02:28;;;;;;;0.30;0.30;;;;;;;23.69;100.00;99169.56;4972614;28;20207;-65
2023/05/28 10:04:58;;;;;;;0.30;0.30;;;;;;;23.69;100.00;99174.78;4973041;28;20199;-65
2023/05/28 10:07:27;;;;;;;0.23;0.23;;;;;;;23.62;99.19;99176.28;4973460;28;20203;-65
2023/05/28 10:09:55;;;;;;;0.20;0.20;;;;;;;23.60;100.00;99165.13;4973067;28;20210;-65
2023/05/28 10:12:28;;;;;;;0.20;0.20;;;;;;;23.46;98.83;99162.88;4973531;28;20242;-65
2023/05/28 10:14:56;;;;;;;0.37;0.37;;;;;;;23.35;96.86;99160.34;4973427;28;20675;-65
2023/05/28 10:17:24;;;;;;;0.37;0.37;;;;;;;23.18;97.34;99147.88;4972753;28;20563;-65
2023/05/28 10:19:51;;;;;;;0.30;0.30;;;;;;;23.10;98.56;99151.16;4972377;28;20204;-65
2023/05/28 10:22:18;;;;;;;0.43;0.43;;;;;;;23.09;98.61;99153.91;4973079;28;20206;-65
2023/05/28 10:24:45;;;;;;;0.30;0.30;;;;;;;22.99;95.73;99149.47;4972191;28;20774;-65
2023/05/28 10:27:14;;;;;;;0.30;0.30;;;;;;;23.01;96.43;99142.31;4972827;28;20219;-65
2023/05/28 10:29:43;;;;;;;0.30;0.30;;;;;;;22.79;98.22;99129.41;4972624;28;20675;-65
2023/05/28 10:32:14;;;;;;;0.30;0.30;;;;;;;22.93;100.00;99144.75;4972526;28;20219;-65
2023/05/28 10:34:41;;;;;;;0.40;0.40;;;;;;;22.98;98.73;99136.50;4972535;28;20203;-65
2023/05/28 10:37:09;;;;;;;0.30;0.30;;;;;;;22.99;95.89;99141.63;4972765;28;20199;-65
2023/05/28 10:39:39;;;;;;;0.30;0.30;;;;;;;23.09;95.25;99133.81;4973085;28;20579;-65
2023/05/28 10:42:07;;;;;;;0.50;0.50;;;;;;;23.17;96.03;99136.59;4973022;28;20286;-65
2023/05/28 10:44:53;;;;;;;0.20;0.20;;;;;;;23.20;98.41;99119.81;4972683;28;20214;-65
2023/05/28 10:47:20;;;;;;;0.33;0.33;;;;;;;23.32;95.74;99129.22;4972595;28;20560;-65
2023/05/28 10:50:01;;;;;;;0.30;0.30;;;;;;;23.34;95.13;99111.59;4972305;28;20206;-65
2023/05/28 10:52:28;;;;;;;0.30;0.30;;;;;;;23.47;93.93;99128.75;4972721;28;20290;-65
2023/05/28 10:54:54;;;;;;;0.53;0.53;;;;;;;23.47;90.93;99127.91;4971830;28;20214;-65
2023/05/28 10:57:22;;;;;;;0.40;0.40;;;;;;;23.51;95.37;99118.84;4971983;28;20215;-65
2023/05/28 10:59:51;;;;;;;0.40;0.40;;;;;;;23.51;94.54;99124.06;4971349;28;20295;-65
2023/05/28 11:02:22;;;;;;;0.20;0.20;;;;;;;23.54;93.03;99118.56;4971681;28;20243;-65
2023/05/28 11:04:51;;;;;;;0.30;0.30;;;;;;;23.57;93.16;99118.28;4971864;28;20207;-65
2023/05/28 11:07:20;;;;;;;0.30;0.30;;;;;;;23.57;94.81;99118.28;4972196;28;20239;-65
2023/05/28 11:09:49;;;;;;;0.40;0.40;;;;;;;23.55;94.75;99115.00;4972422;28;20234;-65
2023/05/28 11:12:16;;;;;;;0.33;0.33;;;;;;;23.56;93.75;99116.63;4971865;28;20223;-65
2023/05/28 11:14:43;;;;;;;0.20;0.20;;;;;;;23.53;93.84;99117.72;4972562;28;20441;-67
2023/05/28 11:17:12;;;;;;;0.40;0.40;;;;;;;23.62;92.24;99126.56;4969199;28;20446;-65
2023/05/28 11:19:41;;;;;;;0.50;0.50;;;;;;;23.76;88.85;99118.31;4970416;28;20204;-66
2023/05/28 11:22:08;;;;;;;0.30;0.30;;;;;;;23.96;88.58;99135.72;4970780;28;20294;-65
2023/05/28 11:24:55;;;;;;;0.33;0.33;;;;;;;24.02;87.56;99140.41;4969543;28;20230;-65
2023/05/28 11:27:23;;;;;;;0.20;0.20;;;;;;;24.02;90.87;99108.97;4969142;28;20302;-66
2023/05/28 11:29:51;;;;;;;0.50;0.50;;;;;;;24.09;90.95;99124.13;4967973;28;20226;-66